Arapahoe, Nebraska
Current Conditions -  °F | °C
As of 3:15 PM on Saturday 25 Oct 2014 (Local Time) from KHDE Reporting Station
Clear Clear  
Wind Chill: 76°   Ceiling: Unl
Heat Index: 78°   Visibility: 10mi
Dew Point: 47°   Wind: 7mph
Humidity: 35%   Direction: 110°ESE
Pressure: 30.04"   Gusts: NA
Location:  40.3°N, 99.9°W
Report Text: KHDE 252015Z AUTO 11006KT 10SM CLR 25/08 A3004 RMK AO2 T02470082
Loading
Personal Weather Stations






























Interactive Weather Map
Tropical Storm Tracking
New forecast layout! Learn more

10-Day Weather Forecast

Advertisements
Track Severe Weather on mobile